Time;durP1;ratioP1;P1;durP2;ratioP2;P2;SDS_P1;SDS_P2;PMS_P1;PMS_P2;Temp;Humidity;BMP_temperature;BMP_pressure;BME280_temperature;BME280_humidity;BME280_pressure;Samples;Min_cycle;Max_cycle;Signal;HPM_P1;HPM_P2
2021/09/07 01:49:09;;;;;;;11.48;10.27;;;;;;;15.16;69.70;99572.09;2627241;46;20050;-71
2021/09/07 01:51:39;;;;;;;11.27;10.10;;;;;;;15.12;69.93;99569.03;2625540;54;20556;-72
2021/09/07 01:54:11;;;;;;;10.80;9.70;;;;;;;15.18;69.80;99568.19;2624573;54;20042;-71
2021/09/07 01:56:42;;;;;;;13.52;11.00;;;;;;;15.22;69.93;99577.41;2625048;47;20083;-71
2021/09/07 01:59:13;;;;;;;12.20;10.05;;;;;;;15.18;69.54;99570.84;2624835;54;20066;-71
2021/09/07 02:01:43;;;;;;;16.63;10.70;;;;;;;15.21;69.53;99565.13;2624202;46;20033;-71
2021/09/07 02:04:16;;;;;;;12.88;10.40;;;;;;;15.15;69.85;99563.31;2624348;54;20030;-71
2021/09/07 02:06:46;;;;;;;11.57;10.48;;;;;;;15.11;69.61;99568.22;2624305;54;20113;-71
2021/09/07 02:09:16;;;;;;;12.45;11.13;;;;;;;15.06;69.99;99573.34;2625226;54;20035;-72
2021/09/07 02:11:46;;;;;;;11.50;10.40;;;;;;;14.98;70.19;99567.34;2625379;46;20042;-72
2021/09/07 02:14:15;;;;;;;14.25;10.63;;;;;;;14.96;70.01;99572.06;2626062;54;20660;-73
2021/09/07 02:16:45;;;;;;;11.43;10.10;;;;;;;14.95;70.46;99570.44;2625775;47;20057;-71
2021/09/07 02:19:18;;;;;;;11.48;9.20;;;;;;;15.00;70.16;99576.78;2625694;54;20046;-71
2021/09/07 02:21:49;;;;;;;12.00;8.43;;;;;;;15.10;70.13;99581.69;2625441;47;20029;-70
2021/09/07 02:24:20;;;;;;;10.98;9.43;;;;;;;15.17;69.22;99579.06;2624967;54;20038;-72
2021/09/07 02:26:49;;;;;;;11.35;9.30;;;;;;;15.18;69.60;99568.19;2624426;51;20026;-71
2021/09/07 02:29:22;;;;;;;11.57;9.10;;;;;;;15.19;69.50;99569.03;2629504;31;20631;-71
2021/09/07 02:31:53;;;;;;;12.63;10.60;;;;;;;15.22;69.16;99565.94;2625545;54;20045;-71
2021/09/07 02:34:27;;;;;;;11.18;10.02;;;;;;;15.01;69.28;99572.28;2624869;47;20055;-72
2021/09/07 02:36:58;;;;;;;11.55;10.35;;;;;;;14.79;69.28;99568.97;2625456;54;20019;-70
2021/09/07 02:39:27;;;;;;;10.55;9.30;;;;;;;14.68;69.95;99565.03;2625687;47;20026;-71
2021/09/07 02:41:58;;;;;;;12.15;10.48;;;;;;;14.64;70.03;99563.81;2626014;39;20507;-70
2021/09/07 02:44:28;;;;;;;12.80;9.98;;;;;;;14.66;70.47;99566.28;2625749;47;20113;-70
2021/09/07 02:46:58;;;;;;;12.85;10.25;;;;;;;14.68;70.02;99551.72;2625550;54;20027;-70
2021/09/07 02:49:30;;;;;;;10.50;8.60;;;;;;;14.64;70.58;99552.34;2626620;47;20026;-71
2021/09/07 02:52:01;;;;;;;12.25;10.95;;;;;;;14.58;70.32;99564.63;2626587;54;20031;-71
2021/09/07 02:54:31;;;;;;;10.77;9.68;;;;;;;14.54;70.30;99552.72;2624643;54;20023;-70
2021/09/07 02:57:02;;;;;;;10.18;9.18;;;;;;;14.48;71.21;99564.94;2626023;54;20018;-70
2021/09/07 02:59:33;;;;;;;11.40;9.05;;;;;;;14.53;70.66;99559.91;2626325;54;20109;-71
2021/09/07 03:02:03;;;;;;;10.95;9.65;;;;;;;14.58;70.45;99564.63;2625939;51;20090;-72
2021/09/07 03:04:36;;;;;;;12.23;10.25;;;;;;;14.50;70.49;99560.28;2629577;39;20507;-71
2021/09/07 03:07:07;;;;;;;;;;;;;;;14.47;71.01;99562.50;2625684;47;20034;-71
2021/09/07 03:09:37;;;;;;;11.55;10.20;;;;;;;14.38;70.55;99561.84;2625464;54;19958;-71
2021/09/07 03:12:08;;;;;;;12.30;10.10;;;;;;;14.31;71.42;99553.81;2625012;47;20030;-71
2021/09/07 03:14:38;;;;;;;11.27;9.32;;;;;;;14.48;71.59;99553.47;2624662;54;20649;-70
2021/09/07 03:17:09;;;;;;;11.48;9.95;;;;;;;14.66;70.69;99543.16;2623484;54;20030;-70
2021/09/07 03:19:42;;;;;;;10.40;9.40;;;;;;;14.67;70.50;99546.63;2623576;47;20023;-71
2021/09/07 03:22:11;;;;;;;12.00;9.07;;;;;;;14.68;70.57;99537.63;2624170;54;20049;-70
2021/09/07 03:24:41;;;;;;;12.90;9.23;;;;;;;14.72;70.34;99546.84;2624709;39;20510;-72
2021/09/07 03:27:11;;;;;;;14.13;10.70;;;;;;;14.70;70.22;99546.22;2623481;49;20558;-72
2021/09/07 03:29:41;;;;;;;11.52;9.90;;;;;;;14.57;70.25;99553.16;2624890;47;20023;-71
2021/09/07 03:32:15;;;;;;;;;;;;;;;14.55;70.81;99552.53;2625400;47;20022;-70
2021/09/07 03:34:47;;;;;;;11.45;9.90;;;;;;;14.54;70.47;99548.22;2625466;54;19947;-70
2021/09/07 03:37:17;;;;;;;12.55;10.73;;;;;;;14.51;70.13;99545.13;2624454;47;20027;-70
2021/09/07 03:39:47;;;;;;;12.98;10.30;;;;;;;14.43;70.95;99542.63;2621289;54;20534;-71
2021/09/07 03:42:18;;;;;;;11.73;10.52;;;;;;;14.41;70.87;99542.00;2621377;54;20046;-71
2021/09/07 03:44:49;;;;;;;11.77;9.45;;;;;;;14.44;71.11;99544.25;2621474;54;20038;-70
2021/09/07 03:47:19;;;;;;;12.20;10.68;;;;;;;14.40;70.55;99548.34;2624799;47;20104;-70
2021/09/07 03:49:54;;;;;;;12.93;11.57;;;;;;;14.30;70.75;99549.53;2625132;54;20022;-70
2021/09/07 03:52:24;;;;;;;12.50;11.20;;;;;;;14.17;71.08;99551.31;2624509;54;20031;-71
2021/09/07 03:54:56;;;;;;;13.07;10.65;;;;;;;14.11;71.54;99547.59;2623364;54;20027;-70
2021/09/07 03:57:27;;;;;;;13.75;11.35;;;;;;;14.15;71.61;99548.84;2624291;47;20137;-70
2021/09/07 03:59:58;;;;;;;11.35;10.13;;;;;;;14.19;71.62;99543.97;2625074;54;20034;-71
2021/09/07 04:02:29;;;;;;;11.63;10.25;;;;;;;14.17;71.19;99546.81;2624140;47;20104;-70
2021/09/07 04:05:02;;;;;;;11.15;10.05;;;;;;;14.15;71.92;99543.53;2624915;54;20671;-71
2021/09/07 04:07:32;;;;;;;10.98;9.88;;;;;;;14.17;71.44;99546.81;2623577;54;20038;-71
2021/09/07 04:10:04;;;;;;;13.63;10.52;;;;;;;14.15;71.68;99543.53;2623963;54;20035;-71
2021/09/07 04:12:34;;;;;;;12.15;10.68;;;;;;;14.15;71.65;99538.22;2623744;54;20038;-71
2021/09/07 04:15:05;;;;;;;13.82;10.57;;;;;;;14.12;71.39;99533.28;2624237;54;20023;-71
2021/09/07 04:17:42;;;;;;;13.15;10.48;;;;;;;14.13;72.01;99534.94;2623864;54;20023;-72
2021/09/07 04:20:16;;;;;;;11.50;10.30;;;;;;;14.06;71.86;99536.75;2623342;54;20090;-71
2021/09/07 04:22:46;;;;;;;13.52;12.23;;;;;;;13.96;72.11;99533.59;2623563;54;20027;-70
2021/09/07 04:25:16;;;;;;;11.98;10.70;;;;;;;13.86;72.13;99540.09;2623685;54;20035;-71
2021/09/07 04:27:46;;;;;;;13.23;11.45;;;;;;;13.83;72.15;99542.34;2623348;47;20043;-71
2021/09/07 04:30:16;;;;;;;13.05;10.65;;;;;;;13.80;72.17;99540.91;2622253;31;20483;-71
2021/09/07 04:32:45;;;;;;;14.40;10.18;;;;;;;13.77;72.29;99546.59;2621238;54;20058;-71
2021/09/07 04:35:18;;;;;;;12.18;10.70;;;;;;;13.86;72.84;99550.75;2622307;54;20031;-72
2021/09/07 04:37:48;;;;;;;11.25;10.05;;;;;;;13.94;72.11;99541.78;2621307;54;20031;-72
2021/09/07 04:40:18;;;;;;;14.70;10.55;;;;;;;14.01;72.03;99542.66;2621614;54;20026;-71
2021/09/07 04:42:47;;;;;;;10.98;9.70;;;;;;;14.06;71.67;99548.19;2622227;54;20564;-70
2021/09/07 04:45:17;;;;;;;13.35;10.45;;;;;;;14.10;72.06;99548.63;2622200;54;20035;-72
2021/09/07 04:47:47;;;;;;;13.90;10.75;;;;;;;14.11;71.40;99544.94;2621608;39;20477;-71
2021/09/07 04:50:20;;;;;;;12.85;10.77;;;;;;;14.10;71.56;99544.13;2621597;54;20086;-71
2021/09/07 04:52:50;;;;;;;13.45;11.20;;;;;;;14.07;71.68;99552.50;2622265;54;20033;-72
2021/09/07 04:55:19;;;;;;;12.30;10.73;;;;;;;14.10;71.56;99546.78;2622233;54;20027;-71
2021/09/07 04:57:49;;;;;;;12.63;9.68;;;;;;;14.11;71.54;99548.41;2623030;54;20046;-71
2021/09/07 05:00:20;;;;;;;11.70;10.00;;;;;;;14.17;71.36;99543.34;2623672;39;20462;-71
2021/09/07 05:02:50;;;;;;;14.15;11.23;;;;;;;14.19;71.10;99549.28;2622722;54;20037;-70
2021/09/07 05:05:22;;;;;;;12.93;11.27;;;;;;;14.11;71.47;99555.56;2623153;54;20023;-72
2021/09/07 05:07:52;;;;;;;14.20;11.77;;;;;;;14.02;71.39;99559.41;2622572;54;20027;-71
2021/09/07 05:10:21;;;;;;;12.85;11.35;;;;;;;13.92;71.98;99559.78;2623639;54;20038;-71
2021/09/07 05:12:51;;;;;;;13.98;11.70;;;;;;;13.84;72.22;99558.09;2625368;46;20038;-70
2021/09/07 05:15:21;;;;;;;14.52;11.05;;;;;;;13.94;72.36;99560.41;2626054;54;20573;-72
2021/09/07 05:17:50;;;;;;;14.05;10.57;;;;;;;14.01;71.94;99563.09;2624320;54;20034;-71
2021/09/07 05:20:23;;;;;;;14.82;11.95;;;;;;;14.09;71.91;99560.28;2623498;54;20018;-72
2021/09/07 05:22:52;;;;;;;17.85;11.13;;;;;;;14.12;71.80;99562.53;2621182;54;20026;-71
2021/09/07 05:25:22;;;;;;;13.57;10.57;;;;;;;14.15;71.75;99562.13;2622573;39;20422;-70
2021/09/07 05:27:52;;;;;;;15.10;10.45;;;;;;;14.23;71.65;99561.16;2621720;47;20151;-70
2021/09/07 05:30:22;;;;;;;12.50;9.88;;;;;;;14.38;71.38;99567.97;2622904;54;20078;-70
2021/09/07 05:32:51;;;;;;;16.85;10.77;;;;;;;14.44;70.51;99568.19;2623561;54;20065;-70
2021/09/07 05:35:23;;;;;;;11.45;10.25;;;;;;;14.42;70.58;99559.63;2625275;54;20027;-70
2021/09/07 05:37:53;;;;;;;13.77;10.25;;;;;;;14.42;71.21;99564.94;2625710;47;20033;-70
2021/09/07 05:40:23;;;;;;;12.57;10.85;;;;;;;14.46;70.57;99560.84;2625745;47;20546;-70
2021/09/07 05:42:52;;;;;;;13.57;10.88;;;;;;;14.44;71.03;99558.38;2624444;47;20042;-71
2021/09/07 05:45:22;;;;;;;12.45;10.98;;;;;;;14.49;70.81;99563.97;2625190;54;20043;-71
2021/09/07 05:47:52;;;;;;;15.45;10.77;;;;;;;14.49;70.89;99571.09;2625188;47;20622;-71
2021/09/07 05:50:24;;;;;;;16.00;13.20;;;;;;;14.51;71.03;99567.25;2624802;54;20018;-70
2021/09/07 05:52:54;;;;;;;19.60;14.57;;;;;;;14.49;70.82;99577.28;2626031;54;20525;-71
2021/09/07 05:55:23;;;;;;;17.15;11.98;;;;;;;14.54;71.49;99574.00;2626889;54;20066;-71
2021/09/07 05:57:55;;;;;;;24.95;16.20;;;;;;;14.60;71.16;99576.69;2626125;54;20031;-71
2021/09/07 06:00:25;;;;;;;12.40;11.10;;;;;;;14.70;71.13;99575.50;2626167;54;20042;-71
2021/09/07 06:02:57;;;;;;;13.13;10.48;;;;;;;14.78;70.85;99570.00;2626083;54;20030;-70
2021/09/07 06:05:30;;;;;;;13.90;11.63;;;;;;;14.80;70.16;99573.25;2626696;54;20613;-71
2021/09/07 06:07:59;;;;;;;14.45;10.68;;;;;;;14.80;69.98;99575.91;2625618;51;20033;-70
2021/09/07 06:10:29;;;;;;;12.82;11.20;;;;;;;14.90;70.59;99573.72;2626177;54;20045;-71
2021/09/07 06:13:00;;;;;;;13.00;10.73;;;;;;;15.10;70.19;99584.38;2625755;54;20057;-72
2021/09/07 06:15:29;;;;;;;13.07;10.85;;;;;;;15.15;69.46;99592.59;2625697;47;20041;-71
2021/09/07 06:17:59;;;;;;;15.35;10.82;;;;;;;15.23;68.96;99589.72;2626185;54;20046;-71
2021/09/07 06:20:31;;;;;;;14.23;10.57;;;;;;;15.32;68.73;99593.03;2625615;47;20026;-70
2021/09/07 06:23:01;;;;;;;12.52;10.60;;;;;;;15.38;68.88;99600.19;2625291;47;20035;-70
2021/09/07 06:25:30;;;;;;;15.05;11.27;;;;;;;15.46;68.14;99597.31;2626402;54;20023;-70
2021/09/07 06:28:00;;;;;;;13.13;10.73;;;;;;;15.54;68.28;99596.28;2626475;54;20038;-70
2021/09/07 06:30:30;;;;;;;12.35;10.35;;;;;;;15.70;68.01;99590.56;2627785;39;20493;-72
2021/09/07 06:33:00;;;;;;;13.63;9.80;;;;;;;15.84;67.89;99599.41;2625951;47;20090;-71
2021/09/07 06:35:32;;;;;;;12.10;10.43;;;;;;;15.96;67.74;99599.56;2625630;54;20034;-71
2021/09/07 06:38:02;;;;;;;14.38;12.57;;;;;;;15.99;66.85;99601.81;2625598;54;20050;-72
2021/09/07 06:40:31;;;;;;;15.00;12.43;;;;;;;15.93;67.09;99597.31;2625232;54;20026;-71
2021/09/07 06:43:01;;;;;;;16.08;13.35;;;;;;;15.96;66.96;99599.56;2625396;54;20030;-71
2021/09/07 06:45:31;;;;;;;17.13;13.18;;;;;;;15.96;67.28;99600.41;2625362;54;20038;-72
2021/09/07 06:48:00;;;;;;;15.25;10.82;;;;;;;16.03;67.25;99603.03;2624500;46;20058;-71
2021/09/07 06:50:33;;;;;;;14.65;12.55;;;;;;;16.10;67.18;99610.00;2623034;54;20060;-72
2021/09/07 06:53:02;;;;;;;13.60;11.30;;;;;;;16.13;66.88;99614.09;2624648;54;20054;-72
2021/09/07 06:55:32;;;;;;;16.48;12.75;;;;;;;16.23;66.84;99619.00;2625045;47;20030;-72
2021/09/07 06:58:02;;;;;;;20.15;14.50;;;;;;;16.20;66.68;99622.88;2625246;54;20026;-70
2021/09/07 07:00:31;;;;;;;23.63;13.73;;;;;;;16.14;66.11;99626.41;2625089;47;20030;-71
2021/09/07 07:03:01;;;;;;;17.35;13.32;;;;;;;16.18;66.53;99624.97;2625729;54;20041;-72
2021/09/07 07:05:33;;;;;;;20.02;15.70;;;;;;;16.28;66.81;99622.66;2625136;54;20128;-71
2021/09/07 07:08:03;;;;;;;21.67;15.05;;;;;;;16.39;66.46;99623.88;2625061;54;20110;-70
2021/09/07 07:10:33;;;;;;;17.58;13.45;;;;;;;16.52;66.06;99618.47;2624780;54;20041;-70
2021/09/07 07:13:03;;;;;;;19.95;14.00;;;;;;;16.69;66.36;99621.50;2625847;54;20038;-70
2021/09/07 07:15:33;;;;;;;20.67;14.40;;;;;;;16.80;65.22;99620.03;2624839;54;20031;-70
2021/09/07 07:18:03;;;;;;;15.50;11.57;;;;;;;16.89;65.43;99624.09;2624406;47;20031;-71
2021/09/07 07:20:35;;;;;;;17.60;14.43;;;;;;;17.02;65.02;99621.38;2624337;54;20027;-70
2021/09/07 07:23:04;;;;;;;15.32;13.00;;;;;;;17.05;64.43;99623.59;2624769;54;20538;-70
2021/09/07 07:25:34;;;;;;;17.52;14.13;;;;;;;17.09;64.93;99608.78;2624104;47;20031;-71
2021/09/07 07:28:04;;;;;;;16.95;12.55;;;;;;;17.18;64.34;99611.19;2624097;54;20046;-70
2021/09/07 07:30:34;;;;;;;15.45;12.65;;;;;;;17.21;64.03;99603.56;2623997;51;20050;-71
2021/09/07 07:33:04;;;;;;;15.80;12.35;;;;;;;17.21;64.17;99608.91;2624436;54;20038;-71
2021/09/07 07:35:36;;;;;;;16.67;12.63;;;;;;;17.24;63.69;99613.03;2624328;54;20027;-71
2021/09/07 07:38:06;;;;;;;19.52;13.13;;;;;;;17.27;63.82;99613.41;2624576;54;20062;-71
2021/09/07 07:40:35;;;;;;;14.75;11.85;;;;;;;17.34;63.88;99622.19;2623912;54;20030;-72
2021/09/07 07:43:06;;;;;;;17.88;11.93;;;;;;;17.36;63.22;99613.16;2624152;54;20069;-71
2021/09/07 07:45:36;;;;;;;16.90;11.98;;;;;;;17.49;63.68;99616.53;2623484;47;20058;-71
2021/09/07 07:48:06;;;;;;;15.68;11.48;;;;;;;17.66;63.19;99613.31;2620586;39;20516;-72
2021/09/07 07:50:39;;;;;;;18.30;12.77;;;;;;;17.85;62.85;99615.03;2617777;54;20058;-71
2021/09/07 07:53:08;;;;;;;17.00;12.45;;;;;;;18.00;62.77;99614.66;2618493;54;20039;-71
2021/09/07 07:55:38;;;;;;;17.10;13.82;;;;;;;18.06;62.35;99613.78;2617994;54;20111;-72
2021/09/07 07:58:25;;;;;;;20.45;14.50;;;;;;;17.99;62.37;99621.06;2618385;54;20027;-72
2021/09/07 08:00:55;;;;;;;16.77;12.80;;;;;;;17.98;62.28;99624.78;2617890;54;20034;-71
2021/09/07 08:03:25;;;;;;;17.17;13.70;;;;;;;18.09;62.58;99625.91;2618774;54;20061;-73
2021/09/07 08:05:58;;;;;;;18.30;13.23;;;;;;;18.21;62.19;99633.00;2619015;54;20033;-73
2021/09/07 08:08:28;;;;;;;19.55;14.60;;;;;;;18.30;62.15;99630.84;2620332;54;20022;-73
2021/09/07 08:10:58;;;;;;;20.58;14.27;;;;;;;18.36;62.22;99634.47;2618131;47;20030;-71
2021/09/07 08:13:27;;;;;;;23.63;16.23;;;;;;;18.46;62.05;99632.91;2618205;54;20038;-73
2021/09/07 08:15:57;;;;;;;19.85;15.32;;;;;;;18.59;61.80;99631.13;2619085;54;20045;-71
2021/09/07 08:18:27;;;;;;;23.23;16.23;;;;;;;18.62;61.55;99639.53;2618321;54;20585;-73
2021/09/07 08:20:59;;;;;;;23.50;14.50;;;;;;;18.67;61.58;99642.34;2617060;54;20049;-72
2021/09/07 08:23:29;;;;;;;21.48;14.30;;;;;;;18.73;61.87;99640.66;2618454;47;20023;-70
2021/09/07 08:25:59;;;;;;;26.30;17.95;;;;;;;18.79;61.01;99637.91;2618098;47;20027;-71
2021/09/07 08:28:28;;;;;;;23.55;15.98;;;;;;;18.83;61.31;99643.63;2618539;54;20543;-73
2021/09/07 08:30:58;;;;;;;22.23;14.90;;;;;;;18.89;61.41;99633.84;2617784;47;20023;-74
2021/09/07 08:33:28;;;;;;;27.88;14.35;;;;;;;18.93;60.80;99641.22;2619157;54;20038;-71
2021/09/07 08:36:01;;;;;;;21.08;13.88;;;;;;;18.98;61.04;99640.53;2619203;39;20438;-72
2021/09/07 08:38:31;;;;;;;16.75;12.52;;;;;;;19.11;60.86;99639.56;2617923;49;20026;-72
2021/09/07 08:41:01;;;;;;;20.55;14.20;;;;;;;19.25;60.57;99651.69;2619047;54;20123;-72
2021/09/07 08:43:31;;;;;;;16.92;14.15;;;;;;;19.36;60.21;99648.25;2620043;54;20023;-74
2021/09/07 08:46:01;;;;;;;18.63;15.45;;;;;;;19.47;59.75;99643.94;2620338;54;20034;-73
2021/09/07 08:48:31;;;;;;;21.52;16.58;;;;;;;19.48;59.58;99637.56;2619676;54;20121;-71
2021/09/07 08:51:04;;;;;;;20.25;16.38;;;;;;;19.46;59.52;99640.44;2618796;54;20031;-73
2021/09/07 08:53:40;;;;;;;21.00;16.55;;;;;;;19.53;59.70;99643.03;2618911;47;20053;-71
2021/09/07 08:56:11;;;;;;;22.52;18.25;;;;;;;19.63;59.28;99637.13;2618990;54;20065;-71
2021/09/07 08:58:41;;;;;;;21.63;16.20;;;;;;;19.69;58.77;99650.44;2619250;54;20037;-71
2021/09/07 09:01:13;;;;;;;18.17;15.60;;;;;;;19.81;58.28;99642.41;2618971;54;20041;-71
2021/09/07 09:03:45;;;;;;;21.20;16.20;;;;;;;19.92;58.21;99635.38;2620174;54;20569;-72
2021/09/07 09:06:26;;;;;;;18.33;15.35;;;;;;;20.08;57.50;99640.06;2620343;54;20534;-72
2021/09/07 09:09:04;;;;;;;18.83;16.67;;;;;;;20.20;57.60;99643.56;2620132;47;20146;-73
2021/09/07 09:11:51;;;;;;;19.02;15.10;;;;;;;20.36;57.49;99641.19;2620164;54;20029;-69
2021/09/07 09:14:37;;;;;;;17.52;15.82;;;;;;;20.45;57.45;99639.78;2619290;54;20158;-73
2021/09/07 09:17:26;;;;;;;19.33;14.95;;;;;;;20.59;56.43;99643.06;2621888;54;20085;-72
2021/09/07 09:19:58;;;;;;;19.08;14.95;;;;;;;20.71;56.47;99644.66;2623183;54;20035;-71
2021/09/07 09:22:49;;;;;;;19.25;15.52;;;;;;;20.91;56.59;99646.94;2622668;54;20045;-71
2021/09/07 09:25:30;;;;;;;17.20;15.35;;;;;;;21.05;55.77;99642.06;2618433;54;20030;-73
2021/09/07 09:28:15;;;;;;;16.95;14.95;;;;;;;21.21;55.46;99643.19;2618467;54;20030;-73
2021/09/07 09:30:46;;;;;;;18.92;14.73;;;;;;;21.35;55.36;99643.72;2618446;54;20034;-71
2021/09/07 09:33:17;;;;;;;18.73;15.45;;;;;;;21.49;54.74;99639.66;2618722;54;20045;-72
2021/09/07 09:35:55;;;;;;;16.85;13.55;;;;;;;21.59;54.93;99639.00;2618812;54;20038;-70
2021/09/07 09:38:32;;;;;;;20.70;16.50;;;;;;;21.75;54.13;99632.81;2618058;54;20027;-70
2021/09/07 09:41:04;;;;;;;18.90;15.38;;;;;;;21.84;54.16;99631.34;2619386;39;20465;-73
2021/09/07 09:43:37;;;;;;;15.23;13.63;;;;;;;21.86;53.58;99629.22;2619162;54;20041;-71
2021/09/07 09:46:22;;;;;;;19.05;14.32;;;;;;;21.94;53.77;99636.06;2618657;47;20026;-72
2021/09/07 09:48:53;;;;;;;14.05;12.55;;;;;;;21.97;53.51;99630.19;2618664;54;20035;-71
2021/09/07 09:51:26;;;;;;;24.70;14.93;;;;;;;22.08;53.36;99623.06;2618444;39;20399;-70
2021/09/07 09:53:58;;;;;;;14.10;12.65;;;;;;;22.21;52.59;99622.75;2619303;54;20022;-71
2021/09/07 09:56:28;;;;;;;13.70;12.20;;;;;;;22.27;52.95;99616.38;2618370;47;20026;-70
2021/09/07 09:58:58;;;;;;;15.05;13.43;;;;;;;22.35;52.71;99613.22;2618066;54;20810;-71
2021/09/07 10:01:28;;;;;;;16.23;12.15;;;;;;;22.41;52.89;99617.63;2618651;47;20027;-72
2021/09/07 10:04:00;;;;;;;15.45;12.75;;;;;;;22.56;52.14;99610.78;2620510;54;20023;-72
2021/09/07 10:06:30;;;;;;;13.98;11.57;;;;;;;22.60;52.34;99601.13;2619403;54;20027;-70
2021/09/07 10:09:02;;;;;;;13.65;11.13;;;;;;;22.70;53.07;99599.38;2620166;54;20023;-71
2021/09/07 10:11:34;;;;;;;12.32;11.05;;;;;;;22.82;52.72;99593.03;2621852;54;20033;-70
2021/09/07 10:14:06;;;;;;;14.65;10.85;;;;;;;22.93;52.24;99590.22;2622386;54;20075;-71
2021/09/07 10:16:40;;;;;;;13.50;11.80;;;;;;;23.11;52.05;99586.34;2623527;54;20045;-70
2021/09/07 10:19:15;;;;;;;15.40;11.60;;;;;;;23.15;51.57;99587.47;2623210;54;20022;-71
2021/09/07 10:24:58;;;;;;;13.23;10.38;;;;;;;23.28;51.50;99580.03;2622806;54;20620;-72
2021/09/07 10:27:57;;;;;;;13.85;12.05;;;;;;;23.38;50.45;99580.91;2623382;54;20082;-72
2021/09/07 10:30:57;;;;;;;13.10;10.70;;;;;;;23.32;50.66;99570.34;2619532;54;20038;-73
2021/09/07 10:33:30;;;;;;;12.95;10.30;;;;;;;23.50;50.69;99567.25;2618327;46;20035;-71
2021/09/07 10:36:19;;;;;;;11.48;10.20;;;;;;;23.69;50.38;99567.69;2619885;54;20549;-71
2021/09/07 10:38:50;;;;;;;12.43;11.13;;;;;;;23.93;50.18;99570.81;2619723;47;20025;-71
2021/09/07 10:41:47;;;;;;;12.73;11.43;;;;;;;24.11;48.77;99567.66;2621401;39;20086;-71
2021/09/07 10:44:31;;;;;;;12.27;10.35;;;;;;;24.05;48.17;99566.00;2622050;39;20422;-71
2021/09/07 10:47:04;;;;;;;11.90;10.70;;;;;;;24.11;48.63;99562.25;2621414;47;20026;-72
2021/09/07 10:49:50;;;;;;;14.25;11.55;;;;;;;24.25;48.04;99564.44;2622497;54;20050;-72
2021/09/07 10:52:25;;;;;;;10.63;9.20;;;;;;;24.28;48.52;99555.84;2621878;54;20026;-70
2021/09/07 10:55:16;;;;;;;11.40;10.30;;;;;;;24.34;48.36;99549.38;2622871;47;20040;-71
2021/09/07 10:57:59;;;;;;;12.45;10.65;;;;;;;24.53;47.74;99547.84;2623735;39;20458;-72
2021/09/07 11:00:40;;;;;;;14.05;10.63;;;;;;;24.64;46.70;99537.88;2625882;39;20441;-71
2021/09/07 11:03:12;;;;;;;15.98;10.77;;;;;;;24.64;46.38;99543.28;2625131;54;20035;-72
2021/09/07 11:05:47;;;;;;;11.65;10.20;;;;;;;24.68;46.41;99539.78;2623156;54;20027;-72
2021/09/07 11:08:42;;;;;;;11.18;9.95;;;;;;;24.73;46.74;99533.56;2620482;54;20086;-71
2021/09/07 11:11:30;;;;;;;10.80;9.30;;;;;;;24.82;46.29;99531.97;2620629;54;20030;-71
2021/09/07 11:14:16;;;;;;;11.52;10.30;;;;;;;25.07;45.58;99535.78;2621173;54;20018;-71
2021/09/07 11:16:54;;;;;;;11.55;10.43;;;;;;;25.20;44.94;99537.97;2622488;54;20027;-70
2021/09/07 11:19:24;;;;;;;11.38;10.18;;;;;;;25.22;44.80;99537.69;2621697;54;20554;-72
2021/09/07 11:21:53;;;;;;;13.63;10.05;;;;;;;25.20;44.94;99524.44;2620387;54;20130;-71
2021/09/07 11:24:23;;;;;;;12.52;9.27;;;;;;;25.16;44.22;99526.06;2619533;54;20045;-72
2021/09/07 11:27:07;;;;;;;10.65;9.60;;;;;;;25.25;44.09;99521.72;2620453;54;20042;-71
2021/09/07 11:29:39;;;;;;;11.77;9.45;;;;;;;25.35;44.09;99520.91;2619782;54;20030;-71
2021/09/07 11:32:26;;;;;;;11.27;9.70;;;;;;;25.56;43.19;99510.88;2619085;54;20023;-70
2021/09/07 11:35:08;;;;;;;11.82;9.75;;;;;;;25.63;42.64;99509.47;2619852;54;20086;-70
2021/09/07 11:37:38;;;;;;;13.70;9.82;;;;;;;25.72;42.72;99508.91;2619658;54;20027;-70
2021/09/07 11:40:12;;;;;;;12.63;9.82;;;;;;;25.79;42.42;99513.00;2619412;54;20038;-70
2021/09/07 11:42:46;;;;;;;11.30;8.68;;;;;;;25.71;42.14;99505.41;2618886;54;20038;-70
2021/09/07 11:45:24;;;;;;;8.77;7.97;;;;;;;25.77;41.20;99508.94;2619535;54;20137;-71
2021/09/07 11:47:54;;;;;;;9.18;7.93;;;;;;;25.87;40.84;99503.50;2620116;54;20637;-72
2021/09/07 11:50:29;;;;;;;8.82;7.93;;;;;;;26.03;39.95;99498.84;2618526;47;20034;-72
2021/09/07 11:53:00;;;;;;;9.25;8.20;;;;;;;26.09;39.71;99503.97;2619489;54;20057;-71
2021/09/07 11:55:48;;;;;;;8.18;7.15;;;;;;;26.21;38.94;99498.22;2618970;54;20775;-72
2021/09/07 11:58:35;;;;;;;8.95;8.13;;;;;;;26.26;39.06;99494.69;2618654;47;20030;-71
2021/09/07 12:01:13;;;;;;;10.38;8.23;;;;;;;26.39;38.41;99494.84;2618649;54;20039;-71
2021/09/07 12:03:52;;;;;;;7.97;7.00;;;;;;;26.45;38.85;99492.94;2618398;54;20034;-72
2021/09/07 12:06:33;;;;;;;9.82;7.13;;;;;;;26.55;38.09;99483.97;2618421;47;20051;-71
2021/09/07 12:09:15;;;;;;;8.90;8.00;;;;;;;26.58;38.03;99486.13;2618497;54;20031;-71
2021/09/07 12:11:48;;;;;;;8.68;7.82;;;;;;;26.60;37.61;99483.91;2619118;39;20422;-70
2021/09/07 12:14:22;;;;;;;9.55;8.45;;;;;;;26.67;37.67;99484.41;2619302;39;20535;-70
2021/09/07 12:16:57;;;;;;;11.05;9.15;;;;;;;26.66;37.37;99480.91;2618759;54;20031;-72
2021/09/07 12:19:37;;;;;;;8.57;7.78;;;;;;;26.64;37.72;99477.66;2618706;54;20035;-71
2021/09/07 12:22:13;;;;;;;8.18;7.38;;;;;;;26.67;37.22;99468.94;2618748;39;20465;-72
2021/09/07 12:24:45;;;;;;;9.57;8.13;;;;;;;26.89;36.54;99460.38;2618770;54;20037;-70
2021/09/07 12:27:42;;;;;;;7.93;7.13;;;;;;;26.99;35.78;99464.91;2618099;46;20018;-71
2021/09/07 12:30:16;;;;;;;9.60;7.15;;;;;;;27.15;35.78;99461.00;2618780;54;20026;-69
2021/09/07 12:32:55;;;;;;;8.98;7.43;;;;;;;27.31;35.21;99461.66;2618017;54;20125;-72
2021/09/07 12:35:40;;;;;;;8.98;7.00;;;;;;;27.38;35.56;99453.16;2618433;54;20086;-69
2021/09/07 12:38:11;;;;;;;8.18;7.15;;;;;;;27.38;35.89;99453.97;2618405;54;20041;-72
2021/09/07 12:40:45;;;;;;;12.02;8.63;;;;;;;27.56;35.27;99444.28;2618514;54;20131;-69
2021/09/07 12:43:18;;;;;;;9.07;8.18;;;;;;;27.55;34.96;99450.00;2619184;39;20426;-70
2021/09/07 12:45:49;;;;;;;8.88;7.30;;;;;;;27.55;35.37;99444.56;2618469;54;20039;-71
2021/09/07 12:48:21;;;;;;;11.23;10.02;;;;;;;27.63;35.96;99433.06;2619705;47;20022;-71
2021/09/07 12:50:52;;;;;;;8.63;7.30;;;;;;;27.59;36.27;99434.72;2621915;54;20546;-70
2021/09/07 12:53:23;;;;;;;9.18;7.07;;;;;;;27.58;36.16;99442.06;2621196;54;20022;-70
2021/09/07 12:56:03;;;;;;;9.13;8.23;;;;;;;27.66;35.90;99436.00;2621801;54;20036;-70
2021/09/07 12:58:34;;;;;;;9.68;8.75;;;;;;;27.54;36.20;99432.88;2621353;54;20041;-70
2021/09/07 13:01:06;;;;;;;11.98;9.27;;;;;;;27.53;36.17;99436.72;2619390;47;20106;-71
2021/09/07 13:03:42;;;;;;;9.98;8.93;;;;;;;27.22;36.77;99430.78;2620756;54;20042;-70
2021/09/07 13:06:12;;;;;;;11.15;8.50;;;;;;;27.09;37.36;99420.59;2619427;54;20030;-71
2021/09/07 13:08:42;;;;;;;11.95;9.60;;;;;;;26.92;37.59;99423.72;2619561;48;20023;-73
2021/09/07 13:11:12;;;;;;;10.32;9.25;;;;;;;26.95;37.73;99423.16;2619397;39;20403;-70
2021/09/07 13:13:41;;;;;;;10.30;9.15;;;;;;;26.95;37.90;99423.16;2620507;39;20411;-71
2021/09/07 13:16:12;;;;;;;10.52;9.38;;;;;;;27.04;37.83;99415.22;2619921;39;20411;-72
2021/09/07 13:18:47;;;;;;;11.50;10.02;;;;;;;27.19;37.20;99414.28;2619401;54;20146;-72
2021/09/07 13:21:17;;;;;;;10.93;8.75;;;;;;;27.28;36.81;99418.00;2619353;39;20462;-74
2021/09/07 13:23:47;;;;;;;9.85;8.95;;;;;;;27.27;36.84;99411.75;2619112;54;20035;-71
2021/09/07 13:26:17;;;;;;;10.95;8.80;;;;;;;27.25;37.34;99413.13;2620338;39;20702;-71
2021/09/07 13:28:47;;;;;;;10.70;8.35;;;;;;;27.16;37.22;99412.97;2618646;47;20081;-71
2021/09/07 13:31:29;;;;;;;10.03;9.07;;;;;;;27.22;37.31;99406.38;2619249;54;20030;-71
2021/09/07 13:34:01;;;;;;;10.48;9.38;;;;;;;27.16;37.53;99402.91;2619406;39;20694;-71
2021/09/07 13:36:31;;;;;;;14.32;9.68;;;;;;;27.34;36.70;99398.63;2619317;31;20569;-70
2021/09/07 13:39:01;;;;;;;9.27;8.32;;;;;;;27.34;36.82;99397.81;2619447;54;20030;-71